createdAt,value
2022-10-26T00:00:16.634Z,100110.61
2022-10-26T00:02:45.731Z,100106.80
2022-10-26T00:05:15.474Z,100110.08
2022-10-26T00:07:44.102Z,100112.52
2022-10-26T00:10:13.471Z,100112.20
2022-10-26T00:12:42.475Z,100111.88
2022-10-26T00:15:12.972Z,100112.41
2022-10-26T00:17:44.576Z,100113.88
2022-10-26T00:20:15.321Z,100123.19
2022-10-26T00:22:44.579Z,100119.06
2022-10-26T00:25:13.854Z,100127.63
2022-10-26T00:27:43.749Z,100128.68
2022-10-26T00:30:12.593Z,100129.11
2022-10-26T00:32:41.760Z,100126.27
2022-10-26T00:35:23.123Z,100123.73
2022-10-26T00:37:44.792Z,100125.85
2022-10-26T00:40:15.454Z,100129.44
2022-10-26T00:42:44.270Z,100127.86
2022-10-26T00:45:26.004Z,100131.98
2022-10-26T00:48:06.514Z,100135.68
2022-10-26T00:50:39.204Z,100136.95
2022-10-26T00:53:07.928Z,100133.89
2022-10-26T00:55:42.241Z,100131.15
2022-10-26T00:58:12.164Z,100136.11
2022-10-26T01:00:42.748Z,100128.40
2022-10-26T01:03:11.882Z,100140.45
2022-10-26T01:05:43.488Z,100131.99
2022-10-26T01:08:13.237Z,100130.09
2022-10-26T01:10:42.727Z,100134.52
2022-10-26T01:13:32.318Z,100134.09
2022-10-26T01:16:43.069Z,100129.66
2022-10-26T01:19:25.996Z,100134.31
2022-10-26T01:22:17.034Z,100136.53
2022-10-26T01:25:24.382Z,100137.27
2022-10-26T01:27:53.529Z,100136.95
2022-10-26T01:30:40.562Z,100143.51
2022-10-26T01:33:40.758Z,100137.17
2022-10-26T01:36:36.170Z,100132.83
2022-10-26T01:39:13.124Z,100130.41
2022-10-26T01:41:51.960Z,100131.78
2022-10-26T01:44:41.125Z,100138.02
2022-10-26T01:47:12.081Z,100133.27
2022-10-26T01:49:46.782Z,100127.34
2022-10-26T01:52:15.392Z,100131.15
2022-10-26T01:54:45.049Z,100131.67
2022-10-26T01:57:17.943Z,100136.95
2022-10-26T02:00:09.741Z,100137.05
2022-10-26T02:02:57.587Z,100135.16
2022-10-26T02:05:46.269Z,100138.95
2022-10-26T02:08:35.987Z,100140.02
2022-10-26T02:11:17.760Z,100144.66
2022-10-26T02:13:55.149Z,100147.09
2022-10-26T02:16:39.607Z,100144.66
2022-10-26T02:19:37.962Z,100144.66
2022-10-26T02:22:12.360Z,100142.77
2022-10-26T02:24:41.911Z,100142.23
2022-10-26T02:27:16.418Z,100149.63
2022-10-26T02:29:46.017Z,100143.08
2022-10-26T02:32:14.904Z,100150.48
2022-10-26T02:34:45.770Z,100148.58
2022-10-26T02:37:16.034Z,100151.31
2022-10-26T02:39:45.407Z,100148.05
2022-10-26T02:42:14.142Z,100148.36
2022-10-26T02:44:53.910Z,100152.48
2022-10-26T02:47:22.980Z,100149.94
2022-10-26T02:49:51.659Z,100150.48
2022-10-26T02:52:31.535Z,100150.79
2022-10-26T02:55:25.758Z,100147.52
2022-10-26T02:58:04.395Z,100143.08
2022-10-26T03:00:34.692Z,100149.63
2022-10-26T03:03:05.161Z,100154.28
2022-10-26T03:05:37.049Z,100150.16
2022-10-26T03:08:06.193Z,100161.67
2022-10-26T03:10:43.684Z,100158.61
2022-10-26T03:13:13.305Z,100162.52
2022-10-26T03:15:42.244Z,100161.67
2022-10-26T03:18:11.319Z,100165.48
2022-10-26T03:20:46.445Z,100160.20
2022-10-26T03:23:15.344Z,100165.16
2022-10-26T03:25:45.629Z,100160.83
2022-10-26T03:28:14.931Z,100163.89
2022-10-26T03:30:43.971Z,100160.62
2022-10-26T03:33:14.260Z,100161.67
2022-10-26T03:35:43.242Z,100159.45
2022-10-26T03:38:15.837Z,100166.33
2022-10-26T03:40:43.085Z,100162.95
2022-10-26T03:43:12.284Z,100166.86
2022-10-26T03:45:41.118Z,100168.55
2022-10-26T03:48:10.091Z,100167.48
2022-10-26T03:50:39.106Z,100172.98
2022-10-26T03:53:07.836Z,100170.44
2022-10-26T03:55:37.267Z,100171.39
2022-10-26T03:58:07.778Z,100168.64
2022-10-26T04:00:36.759Z,100165.89
2022-10-26T04:03:05.961Z,100165.37
2022-10-26T04:05:36.756Z,100168.75
2022-10-26T04:08:05.694Z,100168.42
2022-10-26T04:10:35.778Z,100167.16
2022-10-26T04:13:04.554Z,100167.16
2022-10-26T04:15:34.308Z,100166.41
2022-10-26T04:18:04.216Z,100170.84
2022-10-26T04:20:35.233Z,100166.94
2022-10-26T04:23:07.331Z,100161.77
2022-10-26T04:25:37.039Z,100161.45
2022-10-26T04:28:06.446Z,100157.33
2022-10-26T04:30:36.812Z,100157.86
2022-10-26T04:33:06.015Z,100154.27
2022-10-26T04:35:36.621Z,100145.39
2022-10-26T04:38:06.796Z,100152.27
2022-10-26T04:40:35.619Z,100149.20
2022-10-26T04:43:06.558Z,100151.11
2022-10-26T04:45:37.261Z,100151.31
2022-10-26T04:48:10.267Z,100156.28
2022-10-26T04:50:40.677Z,100153.32
2022-10-26T04:53:10.908Z,100156.06
2022-10-26T04:55:41.089Z,100159.97
2022-10-26T04:58:09.698Z,100162.50
2022-10-26T05:00:38.401Z,100160.92
2022-10-26T05:03:12.207Z,100160.39
2022-10-26T05:05:41.936Z,100159.33
2022-10-26T05:08:11.873Z,100166.52
2022-10-26T05:10:41.047Z,100169.36
2022-10-26T05:13:09.875Z,100165.55
2022-10-26T05:15:39.287Z,100171.89
2022-10-26T05:18:09.052Z,100168.75
2022-10-26T05:20:38.065Z,100173.71
2022-10-26T05:23:09.322Z,100179.20
2022-10-26T05:25:39.302Z,100177.30
2022-10-26T05:28:12.332Z,100177.94
2022-10-26T05:30:45.499Z,100178.78
2022-10-26T05:33:14.582Z,100177.72
2022-10-26T05:35:44.207Z,100191.45
2022-10-26T05:40:54.686Z,100189.66
2022-10-26T05:43:24.547Z,100185.53
2022-10-26T05:45:54.464Z,100185.84
2022-10-26T05:48:24.546Z,100185.53
2022-10-26T05:50:53.445Z,100183.84
2022-10-26T05:53:22.961Z,100180.03
2022-10-26T05:55:54.015Z,100183.09
2022-10-26T05:58:24.506Z,100188.16
2022-10-26T06:01:14.118Z,100189.01
2022-10-26T06:04:22.381Z,100189.64
2022-10-26T06:06:54.799Z,100191.95
2022-10-26T06:09:25.395Z,100198.39
2022-10-26T06:11:55.098Z,100194.90
2022-10-26T06:14:26.485Z,100188.12
2022-10-26T06:17:03.047Z,100183.25
2022-10-26T06:19:49.277Z,100191.28
2022-10-26T06:22:39.649Z,100192.13
2022-10-26T06:25:23.012Z,100196.03
2022-10-26T06:28:06.329Z,100196.45
2022-10-26T06:30:35.717Z,100200.98
2022-10-26T06:33:18.277Z,100197.17
2022-10-26T06:36:04.617Z,100196.83
2022-10-26T06:38:35.967Z,100198.30
2022-10-26T06:41:06.391Z,100200.93
2022-10-26T06:43:37.489Z,100200.49
2022-10-26T06:46:28.263Z,100204.50
2022-10-26T06:49:18.217Z,100206.50
2022-10-26T06:52:07.544Z,100211.56
2022-10-26T06:54:51.996Z,100213.16
2022-10-26T06:57:24.461Z,100217.25
2022-10-26T06:59:56.763Z,100217.13
2022-10-26T07:02:25.784Z,100211.75
2022-10-26T07:04:55.610Z,100227.07
2022-10-26T07:07:27.261Z,100227.70
2022-10-26T07:09:56.899Z,100226.94
2022-10-26T07:12:29.594Z,100227.34
2022-10-26T07:14:58.067Z,100235.07
2022-10-26T07:17:28.720Z,100233.78
2022-10-26T07:19:57.531Z,100233.56
2022-10-26T07:22:26.668Z,100230.06
2022-10-26T07:24:57.997Z,100236.19
2022-10-26T07:27:26.803Z,100238.19
2022-10-26T07:29:55.626Z,100242.09
2022-10-26T07:32:24.593Z,100247.38
2022-10-26T07:34:53.817Z,100245.03
2022-10-26T07:37:23.272Z,100247.88
2022-10-26T07:39:53.090Z,100255.82
2022-10-26T07:42:23.590Z,100253.38
2022-10-26T07:44:52.495Z,100253.47
2022-10-26T07:47:21.221Z,100251.66
2022-10-26T07:49:50.707Z,100263.29
2022-10-26T07:52:19.500Z,100259.47
2022-10-26T07:54:49.949Z,100258.41
2022-10-26T07:57:18.836Z,100256.81
2022-10-26T07:59:48.578Z,100256.90
2022-10-26T08:02:18.808Z,100255.11
2022-10-26T08:04:47.401Z,100260.17
2022-10-26T08:07:16.628Z,100266.84
2022-10-26T08:09:46.717Z,100258.58
2022-10-26T08:12:16.271Z,100264.62
2022-10-26T08:14:45.128Z,100261.86
2022-10-26T08:17:14.622Z,100271.59
2022-10-26T08:19:44.338Z,100273.59
2022-10-26T08:24:43.820Z,100271.23
2022-10-26T08:27:14.712Z,100278.97
2022-10-26T08:29:45.022Z,100270.26
2022-10-26T08:32:15.496Z,100274.87
2022-10-26T08:34:44.997Z,100273.98
2022-10-26T08:37:13.732Z,100274.16
2022-10-26T08:39:44.163Z,100268.20
2022-10-26T08:42:19.938Z,100275.48
2022-10-26T08:44:51.758Z,100288.51
2022-10-26T08:47:24.402Z,100276.50
2022-10-26T08:50:13.318Z,100281.03
2022-10-26T08:53:00.491Z,100286.94
2022-10-26T08:55:46.016Z,100285.64
2022-10-26T08:58:21.911Z,100288.66
2022-10-26T09:00:51.507Z,100290.55
2022-10-26T09:03:24.287Z,100288.18
2022-10-26T09:06:20.061Z,100287.11
2022-10-26T09:09:20.753Z,100288.49
2022-10-26T09:12:13.524Z,100296.98
2022-10-26T09:14:55.502Z,100298.81
2022-10-26T09:17:41.782Z,100296.14
2022-10-26T09:20:31.865Z,100295.92
2022-10-26T09:23:22.306Z,100301.02
2022-10-26T09:26:02.972Z,100304.25
2022-10-26T09:28:37.244Z,100309.00
2022-10-26T09:31:06.441Z,100305.94
2022-10-26T09:33:38.183Z,100306.77
2022-10-26T09:36:16.917Z,100308.16
2022-10-26T09:39:21.444Z,100310.06
2022-10-26T09:41:57.842Z,100309.84
2022-10-26T09:44:40.761Z,100313.30
2022-10-26T09:47:34.824Z,100311.10
2022-10-26T09:50:21.486Z,100311.66
2022-10-26T09:52:52.047Z,100307.37
2022-10-26T09:55:22.599Z,100306.83
2022-10-26T09:57:54.921Z,100304.61
2022-10-26T10:00:25.373Z,100306.13
2022-10-26T10:03:00.911Z,100310.73
2022-10-26T10:05:52.439Z,100315.63
2022-10-26T10:08:28.010Z,100316.39
2022-10-26T10:11:14.957Z,100317.69
2022-10-26T10:13:49.981Z,100314.68
2022-10-26T10:16:26.344Z,100312.29
2022-10-26T10:19:02.465Z,100313.44
2022-10-26T10:21:43.890Z,100307.17
2022-10-26T10:24:30.223Z,100307.48
2022-10-26T10:27:06.273Z,100310.85
2022-10-26T10:29:47.596Z,100307.34
2022-10-26T10:32:22.649Z,100307.73
2022-10-26T10:34:54.552Z,100306.12
2022-10-26T10:37:40.950Z,100303.83
2022-10-26T10:40:19.945Z,100303.69
2022-10-26T10:42:49.197Z,100300.47
2022-10-26T10:45:29.713Z,100303.84
2022-10-26T10:48:14.734Z,100309.98
2022-10-26T10:51:07.451Z,100308.91
2022-10-26T10:53:44.751Z,100307.30
2022-10-26T10:56:36.718Z,100321.17
2022-10-26T10:59:32.501Z,100320.10
2022-10-26T11:02:20.419Z,100319.80
2022-10-26T11:05:11.926Z,100319.26
2022-10-26T11:07:56.229Z,100321.94
2022-10-26T11:10:27.686Z,100324.39
2022-10-26T11:12:59.712Z,100320.70
2022-10-26T11:15:31.681Z,100323.38
2022-10-26T11:18:19.287Z,100313.42
2022-10-26T11:20:53.374Z,100317.56
2022-10-26T11:23:40.151Z,100312.04
2022-10-26T11:26:34.669Z,100315.11
2022-10-26T11:29:09.546Z,100313.34
2022-10-26T11:31:42.502Z,100314.86
2022-10-26T11:34:31.582Z,100317.99
2022-10-26T11:37:14.969Z,100317.45
2022-10-26T11:39:47.121Z,100322.67
2022-10-26T11:42:26.382Z,100318.22
2022-10-26T11:45:31.269Z,100324.27
2022-10-26T11:48:25.285Z,100319.52
2022-10-26T11:50:58.056Z,100321.13
2022-10-26T11:53:39.999Z,100326.78
2022-10-26T11:56:21.708Z,100316.28
2022-10-26T11:58:56.721Z,100317.66
2022-10-26T12:01:29.368Z,100317.74
2022-10-26T12:04:04.256Z,100323.20
2022-10-26T12:06:34.392Z,100331.19
2022-10-26T12:09:12.368Z,100319.78
2022-10-26T12:12:05.166Z,100321.55
2022-10-26T12:14:45.347Z,100325.23
2022-10-26T12:17:24.657Z,100329.14
2022-10-26T12:20:08.007Z,100332.97
2022-10-26T12:22:40.907Z,100333.42
2022-10-26T12:25:20.379Z,100337.17
2022-10-26T12:27:56.192Z,100339.09
2022-10-26T12:30:32.762Z,100341.23
2022-10-26T12:33:05.704Z,100334.33
2022-10-26T12:35:42.926Z,100341.23
2022-10-26T12:38:40.038Z,100337.70
2022-10-26T12:41:22.363Z,100336.64
2022-10-26T12:43:53.489Z,100351.05
2022-10-26T12:46:30.390Z,100351.97
2022-10-26T12:48:59.890Z,100350.59
2022-10-26T12:51:40.170Z,100342.85
2022-10-26T12:54:39.779Z,100338.94
2022-10-26T12:57:22.909Z,100353.95
2022-10-26T13:00:05.589Z,100356.55
2022-10-26T13:03:07.024Z,100358.59
2022-10-26T13:05:59.981Z,100352.23
2022-10-26T13:08:29.179Z,100362.03
2022-10-26T13:11:07.160Z,100364.48
2022-10-26T13:13:35.948Z,100366.09
2022-10-26T13:16:07.186Z,100377.34
2022-10-26T13:18:44.802Z,100380.32
2022-10-26T13:21:18.151Z,100373.93
2022-10-26T13:24:01.433Z,100376.61
2022-10-26T13:26:31.270Z,100384.81
2022-10-26T13:29:02.449Z,100387.08
2022-10-26T13:31:38.828Z,100380.32
2022-10-26T13:34:21.030Z,100387.34
2022-10-26T13:37:07.981Z,100384.62
2022-10-26T13:39:41.434Z,100380.84
2022-10-26T13:42:19.708Z,100392.00
2022-10-26T13:45:12.608Z,100393.06
2022-10-26T13:48:07.521Z,100397.63
2022-10-26T13:53:41.782Z,100404.23
2022-10-26T13:56:46.066Z,100405.84
2022-10-26T13:59:14.973Z,100405.52
2022-10-26T14:01:44.649Z,100415.81
2022-10-26T14:04:19.501Z,100416.56
2022-10-26T14:06:51.736Z,100421.45
2022-10-26T14:09:21.080Z,100421.13
2022-10-26T14:11:53.895Z,100423.48
2022-10-26T14:14:33.311Z,100426.98
2022-10-26T14:17:02.598Z,100426.45
2022-10-26T14:19:35.810Z,100433.55
2022-10-26T14:22:04.445Z,100439.06
2022-10-26T14:24:47.138Z,100433.55
2022-10-26T14:27:18.391Z,100436.39
2022-10-26T14:30:03.647Z,100439.67
2022-10-26T14:32:28.297Z,100441.59
2022-10-26T14:34:57.246Z,100446.47
2022-10-26T14:37:34.372Z,100462.66
2022-10-26T14:40:05.844Z,100450.18
2022-10-26T14:42:39.877Z,100452.09
2022-10-26T14:45:29.539Z,100455.37
2022-10-26T14:47:53.528Z,100458.34
2022-10-26T14:50:24.109Z,100464.27
2022-10-26T14:52:56.474Z,100463.96
2022-10-26T14:55:25.747Z,100465.66
2022-10-26T14:58:14.919Z,100469.25
2022-10-26T15:00:44.525Z,100471.47
2022-10-26T15:03:17.142Z,100474.44
2022-10-26T15:05:46.286Z,100474.44
2022-10-26T15:08:52.466Z,100481.86
2022-10-26T15:11:15.327Z,100477.72
2022-10-26T15:13:46.433Z,100481.44
2022-10-26T15:16:24.772Z,100486.41
2022-10-26T15:19:08.821Z,100484.72
2022-10-26T15:21:47.931Z,100485.78
2022-10-26T15:24:27.980Z,100486.84
2022-10-26T15:26:57.257Z,100483.45
2022-10-26T15:29:45.511Z,100489.49
2022-10-26T15:32:22.167Z,100497.65
2022-10-26T15:35:13.517Z,100509.72
2022-10-26T15:37:42.550Z,100508.55
2022-10-26T15:40:14.378Z,100523.91
2022-10-26T15:42:46.454Z,100522.74
2022-10-26T15:45:24.296Z,100526.55
2022-10-26T15:47:56.557Z,100525.39
2022-10-26T15:50:30.686Z,100527.30
2022-10-26T15:53:05.149Z,100532.80
2022-10-26T15:55:35.847Z,100535.87
2022-10-26T15:58:05.189Z,100540.20
2022-10-26T16:00:34.361Z,100540.52
2022-10-26T16:03:05.327Z,100553.22
2022-10-26T16:05:34.095Z,100551.22
2022-10-26T16:08:03.313Z,100547.94
2022-10-26T16:10:32.304Z,100554.60
2022-10-26T16:13:03.210Z,100550.69
2022-10-26T16:15:32.038Z,100565.82
2022-10-26T16:18:02.393Z,100557.46
2022-10-26T16:20:31.671Z,100568.15
2022-10-26T16:23:03.151Z,100567.30
2022-10-26T16:25:37.761Z,100571.64
2022-10-26T16:28:07.292Z,100578.31
2022-10-26T16:30:36.805Z,100570.58
2022-10-26T16:33:05.871Z,100579.26
2022-10-26T16:35:38.846Z,100576.19
2022-10-26T16:38:07.535Z,100584.87
2022-10-26T16:40:36.800Z,100575.63
2022-10-26T16:43:06.695Z,100580.81
2022-10-26T16:45:35.639Z,100582.08
2022-10-26T16:48:06.955Z,100582.28
2022-10-26T16:50:36.500Z,100582.61
2022-10-26T16:53:06.052Z,100586.63
2022-10-26T16:55:36.141Z,100587.68
2022-10-26T16:58:07.265Z,100581.65
2022-10-26T17:00:37.417Z,100582.81
2022-10-26T17:03:06.308Z,100583.45
2022-10-26T17:05:37.117Z,100592.87
2022-10-26T17:08:08.327Z,100587.79
2022-10-26T17:10:37.212Z,100588.84
2022-10-26T17:13:06.933Z,100594.45
2022-10-26T17:15:37.867Z,100591.91
2022-10-26T17:18:09.292Z,100594.66
2022-10-26T17:20:39.011Z,100598.25
2022-10-26T17:23:07.935Z,100598.58
2022-10-26T17:25:38.122Z,100605.45
2022-10-26T17:28:07.373Z,100606.62
2022-10-26T17:30:36.830Z,100614.23
2022-10-26T17:33:07.302Z,100609.26
2022-10-26T17:35:36.831Z,100611.38
2022-10-26T17:38:05.920Z,100612.11
2022-10-26T17:40:35.211Z,100608.69
2022-10-26T17:43:05.570Z,100602.23
2022-10-26T17:45:35.737Z,100609.42
2022-10-26T17:48:06.102Z,100611.53
2022-10-26T17:50:35.171Z,100610.16
2022-10-26T17:53:05.572Z,100613.76
2022-10-26T17:55:35.687Z,100610.69
2022-10-26T17:58:04.840Z,100615.02
2022-10-26T18:00:34.314Z,100617.45
2022-10-26T18:03:03.315Z,100620.61
2022-10-26T18:05:32.757Z,100619.98
2022-10-26T18:08:02.393Z,100617.64
2022-10-26T18:10:37.985Z,100620.59
2022-10-26T18:13:03.537Z,100622.70
2022-10-26T18:15:34.881Z,100629.47
2022-10-26T18:18:05.532Z,100637.39
2022-10-26T18:20:36.528Z,100632.31
2022-10-26T18:23:05.473Z,100635.59
2022-10-26T18:25:36.499Z,100636.96
2022-10-26T18:28:06.112Z,100642.46
2022-10-26T18:30:35.063Z,100641.73
2022-10-26T18:33:05.294Z,100644.68
2022-10-26T18:35:35.179Z,100658.43
2022-10-26T18:38:04.541Z,100661.38
2022-10-26T18:40:34.239Z,100657.26
2022-10-26T18:43:03.622Z,100665.83
2022-10-26T18:45:34.259Z,100666.36
2022-10-26T18:48:05.001Z,100672.50
2022-10-26T18:50:36.285Z,100671.01
2022-10-26T18:53:07.453Z,100667.73
2022-10-26T18:55:43.347Z,100674.92
2022-10-26T18:58:15.025Z,100675.45
2022-10-26T19:00:44.035Z,100682.00
2022-10-26T19:03:14.435Z,100678.41
2022-10-26T19:05:46.994Z,100689.73
2022-10-26T19:08:16.271Z,100685.28
2022-10-26T19:10:45.883Z,100690.98
2022-10-26T19:13:16.001Z,100696.16
2022-10-26T19:15:47.389Z,100701.34
2022-10-26T19:18:16.334Z,100695.60
2022-10-26T19:20:47.424Z,100707.97
2022-10-26T19:23:16.530Z,100708.91
2022-10-26T19:25:45.605Z,100715.45
2022-10-26T19:28:16.075Z,100712.06
2022-10-26T19:30:46.614Z,100720.31
2022-10-26T19:33:16.049Z,100713.44
2022-10-26T19:35:46.989Z,100714.48
2022-10-26T19:38:15.879Z,100711.22
2022-10-26T19:40:44.691Z,100717.56
2022-10-26T19:43:16.504Z,100719.46
2022-10-26T19:45:45.163Z,100726.53
2022-10-26T19:48:14.450Z,100723.78
2022-10-26T19:50:53.868Z,100729.61
2022-10-26T19:53:22.477Z,100731.39
2022-10-26T19:55:57.167Z,100732.44
2022-10-26T19:58:27.152Z,100734.54
2022-10-26T20:01:01.126Z,100741.29
2022-10-26T20:03:31.122Z,100742.34
2022-10-26T20:06:02.966Z,100740.77
2022-10-26T20:08:31.943Z,100744.23
2022-10-26T20:11:03.234Z,100749.29
2022-10-26T20:13:32.546Z,100750.22
2022-10-26T20:16:03.105Z,100747.27
2022-10-26T20:18:32.052Z,100746.94
2022-10-26T20:21:04.200Z,100761.05
2022-10-26T20:23:33.684Z,100759.67
2022-10-26T20:26:03.867Z,100761.78
2022-10-26T20:28:33.426Z,100766.42
2022-10-26T20:31:03.893Z,100764.20
2022-10-26T20:33:33.148Z,100777.09
2022-10-26T20:36:01.958Z,100767.47
2022-10-26T20:38:32.871Z,100763.55
2022-10-26T20:41:06.255Z,100771.27
2022-10-26T20:43:35.054Z,100768.00
2022-10-26T20:46:04.314Z,100771.59
2022-10-26T20:48:34.427Z,100775.07
2022-10-26T20:51:23.655Z,100772.52
2022-10-26T20:53:57.239Z,100777.37
2022-10-26T20:56:27.227Z,100775.34
2022-10-26T20:59:01.588Z,100768.34
2022-10-26T21:01:32.926Z,100757.88
2022-10-26T21:04:02.997Z,100761.48
2022-10-26T21:06:35.698Z,100762.66
2022-10-26T21:09:04.761Z,100762.98
2022-10-26T21:11:34.713Z,100766.91
2022-10-26T21:14:06.336Z,100771.74
2022-10-26T21:16:37.177Z,100771.74
2022-10-26T21:19:08.183Z,100771.82
2022-10-26T21:21:37.970Z,100772.67
2022-10-26T21:24:09.286Z,100770.90
2022-10-26T21:26:41.132Z,100771.34
2022-10-26T21:29:11.084Z,100775.47
2022-10-26T21:31:41.404Z,100782.02
2022-10-26T21:34:10.496Z,100779.14
2022-10-26T21:36:39.333Z,100780.71
2022-10-26T21:39:08.085Z,100784.38
2022-10-26T21:41:38.700Z,100785.95
2022-10-26T21:44:22.386Z,100787.85
2022-10-26T21:46:40.663Z,100791.52
2022-10-26T21:49:10.245Z,100784.33
2022-10-26T21:51:40.122Z,100791.92
2022-10-26T21:54:09.682Z,100795.78
2022-10-26T21:56:40.144Z,100794.48
2022-10-26T21:59:09.802Z,100786.11
2022-10-26T22:01:39.659Z,100795.00
2022-10-26T22:04:11.658Z,100793.63
2022-10-26T22:06:40.746Z,100800.16
2022-10-26T22:09:10.900Z,100800.89
2022-10-26T22:11:40.219Z,100806.25
2022-10-26T22:14:10.067Z,100806.25
2022-10-26T22:16:39.157Z,100803.90
2022-10-26T22:19:10.341Z,100801.88
2022-10-26T22:21:41.164Z,100805.47
2022-10-26T22:24:10.953Z,100813.37
2022-10-26T22:26:40.559Z,100809.78
2022-10-26T22:29:09.590Z,100808.80
2022-10-26T22:31:40.403Z,100816.38
2022-10-26T22:34:15.492Z,100817.43
2022-10-26T22:36:45.901Z,100817.83
2022-10-26T22:39:15.313Z,100824.69
2022-10-26T22:41:44.117Z,100822.30
2022-10-26T22:44:13.477Z,100818.05
2022-10-26T22:46:43.213Z,100816.05
2022-10-26T22:49:12.529Z,100813.17
2022-10-26T22:51:42.230Z,100815.27
2022-10-26T22:54:11.562Z,100824.34
2022-10-26T22:56:41.470Z,100820.09
2022-10-26T22:59:10.847Z,100818.91
2022-10-26T23:01:41.931Z,100825.78
2022-10-26T23:04:12.626Z,100819.44
2022-10-26T23:06:41.584Z,100823.55
2022-10-26T23:09:10.311Z,100824.93
2022-10-26T23:11:39.546Z,100823.55
2022-10-26T23:14:09.793Z,100819.63
2022-10-26T23:16:38.336Z,100822.90
2022-10-26T23:19:09.705Z,100828.06
2022-10-26T23:21:39.858Z,100824.86
2022-10-26T23:24:09.835Z,100826.42
2022-10-26T23:26:38.766Z,100825.44
2022-10-26T23:29:09.481Z,100825.11
2022-10-26T23:31:39.040Z,100834.52
2022-10-26T23:34:09.494Z,100834.71
2022-10-26T23:36:38.258Z,100837.45
2022-10-26T23:39:07.382Z,100839.73
2022-10-26T23:41:36.317Z,100843.91
2022-10-26T23:44:06.417Z,100835.20
2022-10-26T23:46:35.177Z,100842.26
2022-10-26T23:49:05.595Z,100839.38
2022-10-26T23:51:35.099Z,100844.20
2022-10-26T23:54:04.180Z,100849.17
2022-10-26T23:56:33.375Z,100845.91
2022-10-26T23:59:04.964Z,100844.53
